sensor_id;sensor_type;location;lat;lon;timestamp;pressure;altitude;pressure_sealevel;temperature;humidity
18509;BME280;9383;50.928;12.116;2023-02-11T00:03:56;100537.94;;;-0.37;100.00
18509;BME280;9383;50.928;12.116;2023-02-11T00:06:24;100536.31;;;-0.33;100.00
18509;BME280;9383;50.928;12.116;2023-02-11T00:08:51;100528.72;;;-0.27;100.00
18509;BME280;9383;50.928;12.116;2023-02-11T00:11:20;100527.16;;;-0.22;100.00
18509;BME280;9383;50.928;12.116;2023-02-11T00:13:48;100531.56;;;-0.19;100.00
18509;BME280;9383;50.928;12.116;2023-02-11T00:16:17;100522.16;;;-0.16;100.00
18509;BME280;9383;50.928;12.116;2023-02-11T00:18:44;100518.69;;;-0.15;100.00
18509;BME280;9383;50.928;12.116;2023-02-11T00:21:14;100517.16;;;-0.09;100.00
18509;BME280;9383;50.928;12.116;2023-02-11T00:23:41;100508.50;;;-0.08;100.00
18509;BME280;9383;50.928;12.116;2023-02-11T00:26:29;100504.28;;;-0.05;99.80
18509;BME280;9383;50.928;12.116;2023-02-11T00:28:56;100502.59;;;-0.03;100.00
18509;BME280;9383;50.928;12.116;2023-02-11T00:31:23;100496.56;;;-0.02;99.96
18509;BME280;9383;50.928;12.116;2023-02-11T00:33:50;100486.19;;;0.00;99.86
18509;BME280;9383;50.928;12.116;2023-02-11T00:36:23;100494.94;;;0.02;99.87
18509;BME280;9383;50.928;12.116;2023-02-11T00:38:51;100484.59;;;0.05;99.31
18509;BME280;9383;50.928;12.116;2023-02-11T00:41:19;100468.22;;;0.09;99.10
18509;BME280;9383;50.928;12.116;2023-02-11T00:43:47;100465.69;;;0.12;99.65
18509;BME280;9383;50.928;12.116;2023-02-11T00:46:14;100454.56;;;0.17;98.93
18509;BME280;9383;50.928;12.116;2023-02-11T00:48:41;100452.03;;;0.20;98.96
18509;BME280;9383;50.928;12.116;2023-02-11T00:51:08;100455.56;;;0.22;99.05
18509;BME280;9383;50.928;12.116;2023-02-11T00:53:35;100459.09;;;0.24;98.46
18509;BME280;9383;50.928;12.116;2023-02-11T00:56:02;100458.31;;;0.26;98.58
18509;BME280;9383;50.928;12.116;2023-02-11T00:58:29;100454.00;;;0.27;98.14
18509;BME280;9383;50.928;12.116;2023-02-11T01:00:56;100450.56;;;0.28;98.01
18509;BME280;9383;50.928;12.116;2023-02-11T01:03:23;100448.03;;;0.31;97.74
18509;BME280;9383;50.928;12.116;2023-02-11T01:05:50;100441.13;;;0.32;97.48
18509;BME280;9383;50.928;12.116;2023-02-11T01:08:16;100448.03;;;0.31;97.20
18509;BME280;9383;50.928;12.116;2023-02-11T01:10:43;100437.59;;;0.31;97.40
18509;BME280;9383;50.928;12.116;2023-02-11T01:13:10;100451.56;;;0.32;97.09
18509;BME280;9383;50.928;12.116;2023-02-11T01:15:37;100455.88;;;0.31;97.28
18509;BME280;9383;50.928;12.116;2023-02-11T01:18:05;100454.19;;;0.33;97.43
18509;BME280;9383;50.928;12.116;2023-02-11T01:20:31;100463.00;;;0.37;96.92
18509;BME280;9383;50.928;12.116;2023-02-11T01:22:58;100464.81;;;0.39;96.98
18509;BME280;9383;50.928;12.116;2023-02-11T01:25:25;100455.25;;;0.40;96.68
18509;BME280;9383;50.928;12.116;2023-02-11T01:27:51;100450.09;;;0.41;96.72
18509;BME280;9383;50.928;12.116;2023-02-11T01:30:18;100457.09;;;0.43;96.81
18509;BME280;9383;50.928;12.116;2023-02-11T01:32:45;100445.75;;;0.42;96.59
18509;BME280;9383;50.928;12.116;2023-02-11T01:35:12;100441.47;;;0.44;96.89
18509;BME280;9383;50.928;12.116;2023-02-11T01:37:39;100438.91;;;0.46;96.90
18509;BME280;9383;50.928;12.116;2023-02-11T01:40:09;100427.63;;;0.47;96.05
18509;BME280;9383;50.928;12.116;2023-02-11T01:42:36;100419.81;;;0.47;96.48
18509;BME280;9383;50.928;12.116;2023-02-11T01:45:46;100407.66;;;0.47;95.77
18509;BME280;9383;50.928;12.116;2023-02-11T01:48:28;100400.63;;;0.45;95.81
18509;BME280;9383;50.928;12.116;2023-02-11T01:51:05;100399.78;;;0.46;95.78
18509;BME280;9383;50.928;12.116;2023-02-11T01:53:35;100406.72;;;0.45;96.07
18509;BME280;9383;50.928;12.116;2023-02-11T01:56:21;100395.41;;;0.45;96.04
18509;BME280;9383;50.928;12.116;2023-02-11T01:59:19;100393.69;;;0.45;95.55
18509;BME280;9383;50.928;12.116;2023-02-11T02:01:52;100386.66;;;0.43;95.84
18509;BME280;9383;50.928;12.116;2023-02-11T02:04:23;100392.84;;;0.46;95.69
18509;BME280;9383;50.928;12.116;2023-02-11T02:07:08;100393.78;;;0.48;96.07
18509;BME280;9383;50.928;12.116;2023-02-11T02:09:42;100374.59;;;0.48;95.85
18509;BME280;9383;50.928;12.116;2023-02-11T02:12:09;100380.72;;;0.48;95.44
18509;BME280;9383;50.928;12.116;2023-02-11T02:14:40;100374.66;;;0.49;96.02
18509;BME280;9383;50.928;12.116;2023-02-11T02:17:12;100375.59;;;0.51;95.55
18509;BME280;9383;50.928;12.116;2023-02-11T02:20:20;100367.75;;;0.51;95.29
18509;BME280;9383;50.928;12.116;2023-02-11T02:23:04;100366.13;;;0.55;95.64
18509;BME280;9383;50.928;12.116;2023-02-11T02:25:58;100345.25;;;0.55;95.20
18509;BME280;9383;50.928;12.116;2023-02-11T02:37:03;100386.31;;;0.61;95.12
18509;BME280;9383;50.928;12.116;2023-02-11T02:39:34;100384.63;;;0.63;94.96
18509;BME280;9383;50.928;12.116;2023-02-11T02:42:03;100375.88;;;0.62;95.45
18509;BME280;9383;50.928;12.116;2023-02-11T02:44:30;100379.44;;;0.64;95.13
18509;BME280;9383;50.928;12.116;2023-02-11T02:46:57;100378.59;;;0.65;94.66
18509;BME280;9383;50.928;12.116;2023-02-11T02:49:24;100383.84;;;0.67;94.82
18509;BME280;9383;50.928;12.116;2023-02-11T02:52:19;100383.91;;;0.68;95.20
18509;BME280;9383;50.928;12.116;2023-02-11T03:00:43;100356.13;;;0.70;95.36
18509;BME280;9383;50.928;12.116;2023-02-11T03:06:01;100336.22;;;0.74;95.33
18509;BME280;9383;50.928;12.116;2023-02-11T03:08:46;100329.25;;;0.75;95.26
18509;BME280;9383;50.928;12.116;2023-02-11T03:11:16;100317.16;;;0.77;94.99
18509;BME280;9383;50.928;12.116;2023-02-11T03:13:45;100325.94;;;0.80;95.27
18509;BME280;9383;50.928;12.116;2023-02-11T03:16:16;100332.03;;;0.81;95.44
18509;BME280;9383;50.928;12.116;2023-02-11T03:18:48;100313.84;;;0.84;95.71
18509;BME280;9383;50.928;12.116;2023-02-11T03:21:17;100302.56;;;0.85;95.11
18509;BME280;9383;50.928;12.116;2023-02-11T03:23:54;100308.75;;;0.89;95.04
18509;BME280;9383;50.928;12.116;2023-02-11T03:26:29;100314.03;;;0.90;94.96
18509;BME280;9383;50.928;12.116;2023-02-11T03:29:02;100320.13;;;0.91;95.47
18509;BME280;9383;50.928;12.116;2023-02-11T03:31:54;100321.94;;;0.93;94.83
18509;BME280;9383;50.928;12.116;2023-02-11T03:34:36;100321.16;;;0.96;94.68
18509;BME280;9383;50.928;12.116;2023-02-11T03:37:20;100327.28;;;0.98;95.07
18509;BME280;9383;50.928;12.116;2023-02-11T03:39:59;100327.34;;;1.01;95.21
18509;BME280;9383;50.928;12.116;2023-02-11T03:42:33;100320.41;;;1.02;95.12
18509;BME280;9383;50.928;12.116;2023-02-11T03:45:12;100318.72;;;1.04;95.28
18509;BME280;9383;50.928;12.116;2023-02-11T03:47:45;100315.28;;;1.06;95.10
18509;BME280;9383;50.928;12.116;2023-02-11T03:50:14;100312.72;;;1.08;95.25
18509;BME280;9383;50.928;12.116;2023-02-11T03:52:42;100297.13;;;1.09;94.86
18509;BME280;9383;50.928;12.116;2023-02-11T03:55:12;100292.81;;;1.11;94.78
18509;BME280;9383;50.928;12.116;2023-02-11T03:57:41;100296.34;;;1.14;94.60
18509;BME280;9383;50.928;12.116;2023-02-11T04:00:09;100305.13;;;1.17;94.99
18509;BME280;9383;50.928;12.116;2023-02-11T04:02:37;100310.38;;;1.19;95.11
18509;BME280;9383;50.928;12.116;2023-02-11T04:05:05;100311.34;;;1.22;94.83
18509;BME280;9383;50.928;12.116;2023-02-11T04:07:33;100307.94;;;1.25;94.98
18509;BME280;9383;50.928;12.116;2023-02-11T04:09:59;100303.69;;;1.29;94.60
18509;BME280;9383;50.928;12.116;2023-02-11T04:12:26;100302.00;;;1.31;94.65
18509;BME280;9383;50.928;12.116;2023-02-11T04:14:53;100301.19;;;1.33;94.42
18509;BME280;9383;50.928;12.116;2023-02-11T04:17:20;100302.13;;;1.37;94.68
18509;BME280;9383;50.928;12.116;2023-02-11T04:19:46;100311.78;;;1.39;94.33
18509;BME280;9383;50.928;12.116;2023-02-11T04:22:13;100311.81;;;1.41;94.16
18509;BME280;9383;50.928;12.116;2023-02-11T04:24:39;100309.22;;;1.41;93.92
18509;BME280;9383;50.928;12.116;2023-02-11T04:27:06;100312.75;;;1.43;94.21
18509;BME280;9383;50.928;12.116;2023-02-11T04:29:32;100322.41;;;1.46;94.18
18509;BME280;9383;50.928;12.116;2023-02-11T04:31:59;100236.00;;;1.03;94.03
18509;BME280;9383;50.928;12.116;2023-02-11T04:34:25;100317.25;;;1.50;94.06
18509;BME280;9383;50.928;12.116;2023-02-11T04:36:52;100319.03;;;1.51;94.08
18509;BME280;9383;50.928;12.116;2023-02-11T04:39:19;100326.06;;;1.54;94.01
18509;BME280;9383;50.928;12.116;2023-02-11T04:41:45;100325.22;;;1.55;93.86
18509;BME280;9383;50.928;12.116;2023-02-11T04:44:12;100324.34;;;1.56;93.62
18509;BME280;9383;50.928;12.116;2023-02-11T04:46:39;100322.66;;;1.57;93.79
18509;BME280;9383;50.928;12.116;2023-02-11T04:49:06;100330.50;;;1.57;93.48
18509;BME280;9383;50.928;12.116;2023-02-11T04:51:32;100320.91;;;1.57;93.65
18509;BME280;9383;50.928;12.116;2023-02-11T04:53:59;100319.13;;;1.54;93.90
18509;BME280;9383;50.928;12.116;2023-02-11T04:56:26;100311.28;;;1.54;93.44
18509;BME280;9383;50.928;12.116;2023-02-11T04:58:52;100300.78;;;1.53;93.53
18509;BME280;9383;50.928;12.116;2023-02-11T05:01:19;100301.69;;;1.55;93.34
18509;BME280;9383;50.928;12.116;2023-02-11T05:03:46;100297.34;;;1.56;93.79
18509;BME280;9383;50.928;12.116;2023-02-11T05:06:13;100297.38;;;1.57;93.28
18509;BME280;9383;50.928;12.116;2023-02-11T05:08:40;100290.44;;;1.58;93.30
18509;BME280;9383;50.928;12.116;2023-02-11T05:11:08;100290.44;;;1.58;93.32
18509;BME280;9383;50.928;12.116;2023-02-11T05:13:39;100306.19;;;1.61;93.17
18509;BME280;9383;50.928;12.116;2023-02-11T05:16:06;100303.56;;;1.61;92.86
18509;BME280;9383;50.928;12.116;2023-02-11T05:18:32;100294.88;;;1.62;93.20
18509;BME280;9383;50.928;12.116;2023-02-11T05:20:59;100288.78;;;1.63;93.13
18509;BME280;9383;50.928;12.116;2023-02-11T05:23:30;100294.97;;;1.65;92.85
18509;BME280;9383;50.928;12.116;2023-02-11T05:25:57;100300.22;;;1.66;92.92
18509;BME280;9383;50.928;12.116;2023-02-11T05:28:23;100296.75;;;1.67;92.55
18509;BME280;9383;50.928;12.116;2023-02-11T05:30:50;100295.94;;;1.70;92.34
18509;BME280;9383;50.928;12.116;2023-02-11T05:33:17;100300.38;;;1.73;92.58
18509;BME280;9383;50.928;12.116;2023-02-11T05:35:43;100298.66;;;1.75;92.41
18509;BME280;9383;50.928;12.116;2023-02-11T05:38:10;100303.00;;;1.74;92.47
18509;BME280;9383;50.928;12.116;2023-02-11T05:40:37;100296.06;;;1.76;92.18
18509;BME280;9383;50.928;12.116;2023-02-11T05:43:03;100305.72;;;1.77;92.13
18509;BME280;9383;50.928;12.116;2023-02-11T05:45:30;100310.00;;;1.75;92.29
18509;BME280;9383;50.928;12.116;2023-02-11T05:47:57;100313.56;;;1.77;92.11
18509;BME280;9383;50.928;12.116;2023-02-11T05:50:23;100319.66;;;1.78;92.12
18509;BME280;9383;50.928;12.116;2023-02-11T05:52:50;100314.41;;;1.78;91.97
18509;BME280;9383;50.928;12.116;2023-02-11T05:55:17;100315.34;;;1.80;92.32
18509;BME280;9383;50.928;12.116;2023-02-11T05:57:43;100311.00;;;1.80;92.28
18509;BME280;9383;50.928;12.116;2023-02-11T06:00:10;100309.25;;;1.81;92.18
18509;BME280;9383;50.928;12.116;2023-02-11T06:02:38;100315.44;;;1.85;91.97
18509;BME280;9383;50.928;12.116;2023-02-11T06:05:05;100318.13;;;1.88;92.17
18509;BME280;9383;50.928;12.116;2023-02-11T06:07:32;100320.72;;;1.88;91.88
18509;BME280;9383;50.928;12.116;2023-02-11T06:09:59;100323.34;;;1.88;92.15
18509;BME280;9383;50.928;12.116;2023-02-11T06:12:25;100331.28;;;1.91;91.72
18509;BME280;9383;50.928;12.116;2023-02-11T06:14:52;100332.16;;;1.91;91.96
18509;BME280;9383;50.928;12.116;2023-02-11T06:17:18;100328.69;;;1.92;92.01
18509;BME280;9383;50.928;12.116;2023-02-11T06:19:45;100330.44;;;1.92;91.86
18509;BME280;9383;50.928;12.116;2023-02-11T06:22:11;100333.97;;;1.94;91.89
18509;BME280;9383;50.928;12.116;2023-02-11T06:24:38;100321.75;;;1.94;91.79
18509;BME280;9383;50.928;12.116;2023-02-11T06:27:05;100325.28;;;1.95;91.77
18509;BME280;9383;50.928;12.116;2023-02-11T06:29:31;100322.69;;;1.96;91.91
18509;BME280;9383;50.928;12.116;2023-02-11T06:31:58;100317.44;;;1.95;91.73
18509;BME280;9383;50.928;12.116;2023-02-11T06:34:25;100327.09;;;1.98;91.64
18509;BME280;9383;50.928;12.116;2023-02-11T06:36:51;100322.72;;;1.98;91.57
18509;BME280;9383;50.928;12.116;2023-02-11T06:39:18;100330.59;;;2.00;91.54
18509;BME280;9383;50.928;12.116;2023-02-11T06:41:44;100328.91;;;2.02;91.50
18509;BME280;9383;50.928;12.116;2023-02-11T06:44:11;100321.97;;;2.04;91.48
18509;BME280;9383;50.928;12.116;2023-02-11T06:46:38;100325.47;;;2.04;91.58
18509;BME280;9383;50.928;12.116;2023-02-11T06:49:04;100326.41;;;2.06;91.46
18509;BME280;9383;50.928;12.116;2023-02-11T06:51:31;100328.22;;;2.09;91.22
18509;BME280;9383;50.928;12.116;2023-02-11T06:53:57;100336.06;;;2.10;90.77
18509;BME280;9383;50.928;12.116;2023-02-11T06:56:24;100343.97;;;2.14;90.76
18509;BME280;9383;50.928;12.116;2023-02-11T06:58:54;100334.41;;;2.14;90.70
18509;BME280;9383;50.928;12.116;2023-02-11T07:01:21;100334.47;;;2.17;90.75
18509;BME280;9383;50.928;12.116;2023-02-11T07:03:48;100322.31;;;2.19;90.49
18509;BME280;9383;50.928;12.116;2023-02-11T07:06:20;100329.28;;;2.19;89.72
18509;BME280;9383;50.928;12.116;2023-02-11T07:08:48;100328.50;;;2.23;90.11
18509;BME280;9383;50.928;12.116;2023-02-11T07:11:18;100333.75;;;2.24;89.91
18509;BME280;9383;50.928;12.116;2023-02-11T07:13:46;100332.06;;;2.27;89.49
18509;BME280;9383;50.928;12.116;2023-02-11T07:16:16;100332.94;;;2.27;89.51
18509;BME280;9383;50.928;12.116;2023-02-11T07:18:44;100337.28;;;2.27;89.26
18509;BME280;9383;50.928;12.116;2023-02-11T07:21:13;100339.00;;;2.26;89.07
18509;BME280;9383;50.928;12.116;2023-02-11T07:23:40;100337.34;;;2.28;89.10
18509;BME280;9383;50.928;12.116;2023-02-11T07:26:09;100332.13;;;2.30;88.88
18509;BME280;9383;50.928;12.116;2023-02-11T07:28:38;100326.81;;;2.27;88.97
18509;BME280;9383;50.928;12.116;2023-02-11T07:31:07;100322.56;;;2.30;89.07
18509;BME280;9383;50.928;12.116;2023-02-11T07:33:35;100319.88;;;2.29;88.75
18509;BME280;9383;50.928;12.116;2023-02-11T07:36:04;100328.63;;;2.29;88.78
18509;BME280;9383;50.928;12.116;2023-02-11T07:38:34;100319.94;;;2.32;88.85
18509;BME280;9383;50.928;12.116;2023-02-11T07:41:07;100326.97;;;2.34;88.63
18509;BME280;9383;50.928;12.116;2023-02-11T07:43:34;100334.03;;;2.37;88.91
18509;BME280;9383;50.928;12.116;2023-02-11T07:46:06;100336.66;;;2.38;88.87
18509;BME280;9383;50.928;12.116;2023-02-11T07:48:33;100335.81;;;2.39;88.39
18509;BME280;9383;50.928;12.116;2023-02-11T07:51:11;100341.03;;;2.39;88.40
18509;BME280;9383;50.928;12.116;2023-02-11T07:53:38;100346.38;;;2.43;88.68
18509;BME280;9383;50.928;12.116;2023-02-11T07:56:16;100344.66;;;2.45;88.61
18509;BME280;9383;50.928;12.116;2023-02-11T07:58:43;100341.19;;;2.46;88.27
18509;BME280;9383;50.928;12.116;2023-02-11T08:01:12;100342.94;;;2.47;88.28
18509;BME280;9383;50.928;12.116;2023-02-11T08:03:40;100349.00;;;2.44;88.10
18509;BME280;9383;50.928;12.116;2023-02-11T08:06:15;100341.03;;;2.39;87.71
18509;BME280;9383;50.928;12.116;2023-02-11T08:08:42;100232.56;;;1.80;87.56
18509;BME280;9383;50.928;12.116;2023-02-11T08:11:13;100328.00;;;2.41;87.70
18509;BME280;9383;50.928;12.116;2023-02-11T08:13:40;100335.81;;;2.39;87.92
18509;BME280;9383;50.928;12.116;2023-02-11T08:16:07;100341.09;;;2.41;87.93
18509;BME280;9383;50.928;12.116;2023-02-11T08:18:34;100333.22;;;2.41;87.98
18509;BME280;9383;50.928;12.116;2023-02-11T08:21:06;100337.59;;;2.42;88.34
18509;BME280;9383;50.928;12.116;2023-02-11T08:23:36;100336.81;;;2.46;88.09
18509;BME280;9383;50.928;12.116;2023-02-11T08:26:04;100340.38;;;2.50;88.03
18509;BME280;9383;50.928;12.116;2023-02-11T08:28:30;100332.56;;;2.51;87.93
18509;BME280;9383;50.928;12.116;2023-02-11T08:30:57;100336.06;;;2.52;88.13
18509;BME280;9383;50.928;12.116;2023-02-11T08:33:29;100322.16;;;2.55;87.89
18509;BME280;9383;50.928;12.116;2023-02-11T08:35:56;100318.72;;;2.57;87.91
18509;BME280;9383;50.928;12.116;2023-02-11T08:38:23;100322.25;;;2.59;87.94
18509;BME280;9383;50.928;12.116;2023-02-11T08:40:49;100333.69;;;2.63;87.94
18509;BME280;9383;50.928;12.116;2023-02-11T08:43:15;100328.50;;;2.66;88.05
18509;BME280;9383;50.928;12.116;2023-02-11T08:45:42;100336.34;;;2.66;88.13
18509;BME280;9383;50.928;12.116;2023-02-11T08:48:09;100333.78;;;2.67;88.17
18509;BME280;9383;50.928;12.116;2023-02-11T08:50:38;100328.59;;;2.71;88.13
18509;BME280;9383;50.928;12.116;2023-02-11T08:53:05;100328.63;;;2.72;88.02
18509;BME280;9383;50.928;12.116;2023-02-11T08:55:31;100334.78;;;2.76;88.25
18509;BME280;9383;50.928;12.116;2023-02-11T08:57:58;100338.31;;;2.78;88.27
18509;BME280;9383;50.928;12.116;2023-02-11T09:00:24;100334.91;;;2.82;88.14
18509;BME280;9383;50.928;12.116;2023-02-11T09:02:51;100332.34;;;2.85;88.13
18509;BME280;9383;50.928;12.116;2023-02-11T09:05:18;100340.25;;;2.88;87.92
18509;BME280;9383;50.928;12.116;2023-02-11T09:07:44;100350.88;;;2.94;88.08
18509;BME280;9383;50.928;12.116;2023-02-11T09:10:11;100337.88;;;2.99;88.27
18509;BME280;9383;50.928;12.116;2023-02-11T09:12:38;100330.97;;;3.04;88.24
18509;BME280;9383;50.928;12.116;2023-02-11T09:15:05;100345.91;;;3.10;88.63
18509;BME280;9383;50.928;12.116;2023-02-11T09:17:32;100344.22;;;3.14;88.33
18509;BME280;9383;50.928;12.116;2023-02-11T09:19:59;100346.94;;;3.18;87.91
18509;BME280;9383;50.928;12.116;2023-02-11T09:22:25;100339.09;;;3.20;88.53
18509;BME280;9383;50.928;12.116;2023-02-11T09:24:54;100334.81;;;3.25;88.35
18509;BME280;9383;50.928;12.116;2023-02-11T09:27:22;100345.34;;;3.28;88.63
18509;BME280;9383;50.928;12.116;2023-02-11T09:29:49;100341.06;;;3.32;88.49
18509;BME280;9383;50.928;12.116;2023-02-11T09:32:16;100344.63;;;3.35;88.57
18509;BME280;9383;50.928;12.116;2023-02-11T09:34:43;100341.19;;;3.41;88.56
18509;BME280;9383;50.928;12.116;2023-02-11T09:37:10;100352.69;;;3.48;88.71
18509;BME280;9383;50.928;12.116;2023-02-11T09:39:36;100355.38;;;3.52;88.94
18509;BME280;9383;50.928;12.116;2023-02-11T09:44:57;100366.00;;;3.60;88.89
18509;BME280;9383;50.928;12.116;2023-02-11T09:47:33;100371.31;;;3.65;88.26
18509;BME280;9383;50.928;12.116;2023-02-11T09:50:04;100374.91;;;3.70;88.40
18509;BME280;9383;50.928;12.116;2023-02-11T09:55:01;100377.69;;;3.79;88.66
18509;BME280;9383;50.928;12.116;2023-02-11T09:57:34;100378.59;;;3.83;88.55
18509;BME280;9383;50.928;12.116;2023-02-11T10:00:16;100381.28;;;3.86;88.10
18509;BME280;9383;50.928;12.116;2023-02-11T10:06:09;100377.09;;;3.99;88.31
18509;BME280;9383;50.928;12.116;2023-02-11T10:11:40;100378.19;;;4.14;89.04
18509;BME280;9383;50.928;12.116;2023-02-11T10:14:20;100384.44;;;4.22;88.75
18509;BME280;9383;50.928;12.116;2023-02-11T10:17:09;100323.69;;;3.94;88.66
18509;BME280;9383;50.928;12.116;2023-02-11T10:22:36;100378.69;;;4.51;88.81
18509;BME280;9383;50.928;12.116;2023-02-11T10:25:23;100369.19;;;4.59;88.58
18509;BME280;9383;50.928;12.116;2023-02-11T10:27:51;100357.84;;;4.63;87.83
18509;BME280;9383;50.928;12.116;2023-02-11T10:30:30;100349.16;;;4.69;87.56
18509;BME280;9383;50.928;12.116;2023-02-11T10:33:15;100358.00;;;4.79;87.53
18509;BME280;9383;50.928;12.116;2023-02-11T10:35:45;100339.72;;;4.85;87.92
18509;BME280;9383;50.928;12.116;2023-02-11T10:38:12;100353.81;;;4.93;87.64
18509;BME280;9383;50.928;12.116;2023-02-11T10:40:38;100344.19;;;4.94;87.31
18509;BME280;9383;50.928;12.116;2023-02-11T10:43:09;100339.84;;;4.98;86.66
18509;BME280;9383;50.928;12.116;2023-02-11T10:45:48;100336.38;;;5.02;86.79
18509;BME280;9383;50.928;12.116;2023-02-11T10:48:45;100332.94;;;5.06;86.27
18509;BME280;9383;50.928;12.116;2023-02-11T10:51:23;100325.94;;;5.11;86.10
18509;BME280;9383;50.928;12.116;2023-02-11T10:56:36;100329.53;;;5.19;86.26
18509;BME280;9383;50.928;12.116;2023-02-11T10:59:25;100334.00;;;5.25;86.59
18509;BME280;9383;50.928;12.116;2023-02-11T11:01:56;100326.94;;;5.23;85.94
18509;BME280;9383;50.928;12.116;2023-02-11T11:06:55;100320.06;;;5.39;86.89
18509;BME280;9383;50.928;12.116;2023-02-11T11:09:29;100318.41;;;5.48;86.59
18509;BME280;9383;50.928;12.116;2023-02-11T11:12:04;100319.38;;;5.63;86.65
18509;BME280;9383;50.928;12.116;2023-02-11T11:14:30;100317.72;;;5.76;87.06
18509;BME280;9383;50.928;12.116;2023-02-11T11:16:57;100334.47;;;5.89;86.95
18509;BME280;9383;50.928;12.116;2023-02-11T11:19:25;100334.53;;;5.97;85.55
18509;BME280;9383;50.928;12.116;2023-02-11T11:21:56;100331.13;;;6.07;84.97
18509;BME280;9383;50.928;12.116;2023-02-11T11:24:29;100332.00;;;6.08;84.72
18509;BME280;9383;50.928;12.116;2023-02-11T11:27:00;100327.63;;;6.11;84.50
18509;BME280;9383;50.928;12.116;2023-02-11T11:29:37;100328.50;;;6.12;84.31
18509;BME280;9383;50.928;12.116;2023-02-11T11:32:28;100332.06;;;6.15;85.20
18509;BME280;9383;50.928;12.116;2023-02-11T11:35:04;100327.72;;;6.27;85.52
18509;BME280;9383;50.928;12.116;2023-02-11T11:37:38;100320.72;;;6.35;85.85
18509;BME280;9383;50.928;12.116;2023-02-11T11:42:41;100297.97;;;6.54;85.78
18509;BME280;9383;50.928;12.116;2023-02-11T11:45:24;100292.72;;;6.62;85.33
18509;BME280;9383;50.928;12.116;2023-02-11T11:50:31;100290.97;;;6.69;84.31
18509;BME280;9383;50.928;12.116;2023-02-11T11:53:11;100297.16;;;6.74;83.51
18509;BME280;9383;50.928;12.116;2023-02-11T11:55:44;100294.53;;;6.79;83.79
18509;BME280;9383;50.928;12.116;2023-02-11T11:58:20;100293.66;;;6.80;83.30
18509;BME280;9383;50.928;12.116;2023-02-11T12:00:58;100296.31;;;6.84;83.20
18509;BME280;9383;50.928;12.116;2023-02-11T12:09:03;100304.22;;;6.98;83.17
18509;BME280;9383;50.928;12.116;2023-02-11T12:14:42;100304.25;;;7.00;82.43
18509;BME280;9383;50.928;12.116;2023-02-11T12:17:44;100303.34;;;6.99;82.38
18509;BME280;9383;50.928;12.116;2023-02-11T12:20:25;100306.88;;;7.01;82.56
18509;BME280;9383;50.928;12.116;2023-02-11T12:31:35;100292.84;;;7.02;82.75
18509;BME280;9383;50.928;12.116;2023-02-11T12:34:40;100299.88;;;7.03;82.43
18509;BME280;9383;50.928;12.116;2023-02-11T12:37:36;100297.22;;;7.05;82.59
18509;BME280;9383;50.928;12.116;2023-02-11T12:40:45;100298.97;;;7.06;82.94
18509;BME280;9383;50.928;12.116;2023-02-11T12:43:21;100290.19;;;7.04;82.42
18509;BME280;9383;50.928;12.116;2023-02-11T12:46:26;100287.53;;;7.04;83.00
18509;BME280;9383;50.928;12.116;2023-02-11T12:52:11;100290.19;;;7.06;82.89
18509;BME280;9383;50.928;12.116;2023-02-11T12:57:24;100288.44;;;7.08;83.36
18509;BME280;9383;50.928;12.116;2023-02-11T13:02:55;100299.00;;;7.09;83.50
18509;BME280;9383;50.928;12.116;2023-02-11T13:05:38;100306.00;;;7.09;83.43
18509;BME280;9383;50.928;12.116;2023-02-11T13:10:45;100304.25;;;7.12;83.54
18509;BME280;9383;50.928;12.116;2023-02-11T13:13:41;100304.25;;;7.14;83.19
18509;BME280;9383;50.928;12.116;2023-02-11T13:24:10;100294.59;;;7.17;83.67
18509;BME280;9383;50.928;12.116;2023-02-11T13:37:21;100297.22;;;7.14;83.89
18509;BME280;9383;50.928;12.116;2023-02-11T13:40:09;100306.03;;;7.13;83.85
18509;BME280;9383;50.928;12.116;2023-02-11T13:42:53;100299.00;;;7.09;84.27
18509;BME280;9383;50.928;12.116;2023-02-11T13:48:04;100305.13;;;7.10;84.32
18509;BME280;9383;50.928;12.116;2023-02-11T13:50:36;100306.00;;;7.04;85.07
18509;BME280;9383;50.928;12.116;2023-02-11T13:53:04;100294.56;;;7.05;84.75
18509;BME280;9383;50.928;12.116;2023-02-11T13:55:33;100288.41;;;7.03;84.98
18509;BME280;9383;50.928;12.116;2023-02-11T14:00:54;100295.47;;;7.01;85.93
18509;BME280;9383;50.928;12.116;2023-02-11T14:03:26;100298.97;;;7.01;85.93
18509;BME280;9383;50.928;12.116;2023-02-11T14:11:45;100296.31;;;7.01;86.20
18509;BME280;9383;50.928;12.116;2023-02-11T14:19:38;100291.94;;;6.97;88.05
18509;BME280;9383;50.928;12.116;2023-02-11T14:22:22;100284.91;;;6.96;88.05
18509;BME280;9383;50.928;12.116;2023-02-11T14:24:55;100291.94;;;6.96;88.01
18509;BME280;9383;50.928;12.116;2023-02-11T14:35:39;100293.69;;;6.95;89.04
18509;BME280;9383;50.928;12.116;2023-02-11T14:41:10;100303.34;;;6.95;89.89
18509;BME280;9383;50.928;12.116;2023-02-11T14:43:47;100296.31;;;6.92;89.96
18509;BME280;9383;50.928;12.116;2023-02-11T14:46:17;100304.22;;;6.95;89.53
18509;BME280;9383;50.928;12.116;2023-02-11T14:48:51;100300.69;;;6.95;89.97
18509;BME280;9383;50.928;12.116;2023-02-11T14:51:30;100300.72;;;6.92;89.80
18509;BME280;9383;50.928;12.116;2023-02-11T14:56:38;100293.69;;;6.89;90.14
18509;BME280;9383;50.928;12.116;2023-02-11T14:59:19;100308.63;;;6.90;90.44
18509;BME280;9383;50.928;12.116;2023-02-11T15:01:51;100306.84;;;6.90;90.24
18509;BME280;9383;50.928;12.116;2023-02-11T15:04:29;100310.38;;;6.89;90.16
18509;BME280;9383;50.928;12.116;2023-02-11T15:06:58;100317.41;;;6.89;90.38
18509;BME280;9383;50.928;12.116;2023-02-11T15:09:44;100311.25;;;6.88;90.47
18509;BME280;9383;50.928;12.116;2023-02-11T15:12:25;100315.66;;;6.86;90.25
18509;BME280;9383;50.928;12.116;2023-02-11T15:14:55;100309.50;;;6.84;90.78
18509;BME280;9383;50.928;12.116;2023-02-11T15:17:26;100320.00;;;6.81;91.23
18509;BME280;9383;50.928;12.116;2023-02-11T15:19:58;100324.41;;;6.82;91.26
18509;BME280;9383;50.928;12.116;2023-02-11T15:22:28;100321.75;;;6.79;91.29
18509;BME280;9383;50.928;12.116;2023-02-11T15:24:59;100326.16;;;6.80;91.53